Dades meteomassalio
Diari Summary for Abril 16, 2017 Units:  Metric    English   Both
« Previous Day
Next Day »
Diari Semanal Mensual Anual Personalitzat
  Maxima: Minima: Mijana:
Temperatura: 23.7 °C 9.8 °C 16.1 °C
Rosada: 7.2 °C 4.3 °C 5.8 °C
Humitat: 75 % 29 % 53 %
Velocitat del vent: 35.4 km/h 0.0 km/h 10.1 km/h
Racha vent: 35.4 km/h - -
Vent:- - West
Pressio: 1024.3 hPa 1018.2 hPa -
Pluja: 0.0 mm    
Historical Graphs
 
 
Tabular Data for Abril 16, 2017
Time Temperature Dew Point Pressure Wind Wind Speed Wind Gust Humidity Rainfall Rate (Hourly) solar Conditions
00:00 14.7 °C 6.0 °C 1021.6 hPa WNW 14.8 km/h 14.8 km/h 56 % 0.0 mm 0.0 W/m2 CLR
00:05 14.6 °C 6.1 °C 1021.6 hPa West 31.5 km/h 31.5 km/h 57 % 0.0 mm 0.0 W/m2 CLR
00:10 14.5 °C 6.1 °C 1021.6 hPa West 20.4 km/h 20.4 km/h 57 % 0.0 mm 0.0 W/m2 CLR
00:15 14.3 °C 6.2 °C 1021.6 hPa West 27.8 km/h 27.8 km/h 58 % 0.0 mm 0.0 W/m2 CLR
00:20 14.3 °C 6.2 °C 1021.6 hPa WSW 35.4 km/h 35.4 km/h 58 % 0.0 mm 0.0 W/m2 CLR
00:25 14.3 °C 6.2 °C 1021.6 hPa NW 31.5 km/h 31.5 km/h 58 % 0.0 mm 0.0 W/m2 CLR
00:30 14.2 °C 6.3 °C 1021.9 hPa WNW 29.6 km/h 29.6 km/h 59 % 0.0 mm 0.0 W/m2 CLR
00:35 14.1 °C 6.2 °C 1021.9 hPa WNW 31.5 km/h 31.5 km/h 59 % 0.0 mm 0.0 W/m2 CLR
00:40 14.0 °C 6.1 °C 1021.9 hPa NW 24.1 km/h 24.1 km/h 59 % 0.0 mm 0.0 W/m2 CLR
00:41 14.0 °C 6.1 °C 1021.9 hPa WNW 22.2 km/h 22.2 km/h 59 % 0.0 mm 0.0 W/m2 CLR
00:46 13.8 °C 6.2 °C 1021.9 hPa NW 20.9 km/h 20.9 km/h 60 % 0.0 mm 0.0 W/m2 CLR
00:51 13.8 °C 6.2 °C 1021.9 hPa WNW 24.1 km/h 24.1 km/h 60 % 0.0 mm 0.0 W/m2 CLR
00:56 13.7 °C 6.1 °C 1021.9 hPa WNW 24.1 km/h 24.1 km/h 60 % 0.0 mm 0.0 W/m2 CLR
01:01 13.7 °C 6.1 °C 1021.9 hPa WNW 25.9 km/h 25.9 km/h 60 % 0.0 mm 0.0 W/m2 CLR
01:06 13.6 °C 6.2 °C 1022.2 hPa West 16.7 km/h 16.7 km/h 61 % 0.0 mm 0.0 W/m2 CLR
01:11 13.5 °C 6.1 °C 1022.2 hPa NW 13.0 km/h 13.0 km/h 61 % 0.0 mm 0.0 W/m2 CLR
01:16 13.4 °C 6.1 °C 1022.2 hPa WNW 16.1 km/h 16.1 km/h 61 % 0.0 mm 0.0 W/m2 CLR
01:21 13.4 °C 6.3 °C 1022.6 hPa West 18.5 km/h 18.5 km/h 62 % 0.0 mm 0.0 W/m2 CLR
01:26 13.3 °C 6.2 °C 1022.6 hPa West 12.9 km/h 12.9 km/h 62 % 0.0 mm 0.0 W/m2 CLR
01:31 13.3 °C 6.2 °C 1022.9 hPa WNW 3.7 km/h 3.7 km/h 62 % 0.0 mm 0.0 W/m2 CLR
01:36 13.2 °C 6.3 °C 1022.6 hPa West 14.8 km/h 14.8 km/h 63 % 0.0 mm 0.0 W/m2 CLR
01:41 13.1 °C 6.2 °C 1022.6 hPa WNW 25.9 km/h 25.9 km/h 63 % 0.0 mm 0.0 W/m2 CLR
01:46 13.1 °C 6.2 °C 1022.6 hPa West 16.7 km/h 16.7 km/h 63 % 0.0 mm 0.0 W/m2 CLR
01:51 12.9 °C 6.3 °C 1022.6 hPa West 16.7 km/h 16.7 km/h 64 % 0.0 mm 0.0 W/m2 CLR
01:56 12.9 °C 6.3 °C 1022.6 hPa West 22.2 km/h 22.2 km/h 64 % 0.0 mm 0.0 W/m2 CLR
02:01 12.9 °C 6.3 °C 1022.9 hPa West 20.4 km/h 20.4 km/h 64 % 0.0 mm 0.0 W/m2 CLR
02:06 12.8 °C 6.2 °C 1022.9 hPa West 16.7 km/h 16.7 km/h 64 % 0.0 mm 0.0 W/m2 CLR
02:11 12.8 °C 6.1 °C 1022.9 hPa West 14.5 km/h 14.5 km/h 64 % 0.0 mm 0.0 W/m2 CLR
02:16 12.7 °C 6.3 °C 1022.9 hPa WNW 18.5 km/h 18.5 km/h 65 % 0.0 mm 0.0 W/m2 CLR
02:21 12.5 °C 6.1 °C 1022.9 hPa WNW 18.5 km/h 18.5 km/h 65 % 0.0 mm 0.0 W/m2 CLR
02:26 12.4 °C 6.1 °C 1022.9 hPa NW 14.8 km/h 14.8 km/h 65 % 0.0 mm 0.0 W/m2 CLR
02:31 12.4 °C 6.2 °C 1022.9 hPa WNW 14.8 km/h 14.8 km/h 66 % 0.0 mm 0.0 W/m2 CLR
02:36 12.3 °C 6.2 °C 1022.9 hPa West 16.7 km/h 16.7 km/h 66 % 0.0 mm 0.0 W/m2 CLR
02:41 12.3 °C 6.2 °C 1022.9 hPa WNW 18.5 km/h 18.5 km/h 66 % 0.0 mm 0.0 W/m2 CLR
02:46 12.3 °C 6.1 °C 1022.9 hPa WSW 18.5 km/h 18.5 km/h 66 % 0.0 mm 0.0 W/m2 CLR
02:51 12.3 °C 6.1 °C 1022.9 hPa West 14.8 km/h 14.8 km/h 66 % 0.0 mm 0.0 W/m2 CLR
02:56 12.2 °C 6.1 °C 1022.9 hPa WNW 18.5 km/h 18.5 km/h 66 % 0.0 mm 0.0 W/m2 CLR
03:01 12.2 °C 6.0 °C 1022.9 hPa West 16.7 km/h 16.7 km/h 66 % 0.0 mm 0.0 W/m2 CLR
03:06 12.1 °C 5.9 °C 1022.9 hPa WNW 25.9 km/h 25.9 km/h 66 % 0.0 mm 0.0 W/m2 CLR
03:11 12.1 °C 6.1 °C 1022.9 hPa West 14.8 km/h 14.8 km/h 67 % 0.0 mm 0.0 W/m2 CLR
03:16 12.1 °C 6.1 °C 1022.9 hPa WSW 3.7 km/h   67 % 0.0 mm 0.0 W/m2 CLR
03:21 11.9 °C 5.9 °C 1022.9 hPa West 14.8 km/h 14.8 km/h 67 % 0.0 mm 0.0 W/m2 CLR
03:26 11.8 °C 6.1 °C 1022.9 hPa WSW 5.6 km/h 5.6 km/h 68 % 0.0 mm 0.0 W/m2 CLR
03:31 11.6 °C 5.9 °C 1022.9 hPa WSW 5.6 km/h 5.6 km/h 68 % 0.0 mm 0.0 W/m2 CLR
03:36 11.5 °C 6.0 °C 1022.9 hPa WSW 5.6 km/h 5.6 km/h 69 % 0.0 mm 0.0 W/m2 CLR
03:41 11.4 °C 5.9 °C 1023.2 hPa WSW 9.3 km/h 9.3 km/h 69 % 0.0 mm 0.0 W/m2 CLR
03:46 11.4 °C 5.9 °C 1022.9 hPa West 6.4 km/h 6.4 km/h 69 % 0.0 mm 0.0 W/m2 CLR
03:51 11.4 °C 6.1 °C 1022.9 hPa WNW 7.4 km/h 7.4 km/h 70 % 0.0 mm 0.0 W/m2 CLR
03:56 11.4 °C 6.1 °C 1022.9 hPa WSW 18.5 km/h 18.5 km/h 70 % 0.0 mm 0.0 W/m2 CLR
04:01 11.4 °C 6.1 °C 1022.9 hPa West 5.6 km/h 5.6 km/h 70 % 0.0 mm 0.0 W/m2 CLR
04:06 11.3 °C 5.8 °C 1023.2 hPa WSW 5.6 km/h 5.6 km/h 69 % 0.0 mm 0.0 W/m2 CLR
04:11 11.2 °C 5.9 °C 1023.2 hPa WSW 9.7 km/h 9.7 km/h 70 % 0.0 mm 0.0 W/m2 CLR
04:16 11.2 °C 5.9 °C 1022.9 hPa West 14.8 km/h 14.8 km/h 70 % 0.0 mm 0.0 W/m2 CLR
04:21 11.2 °C 5.9 °C 1022.9 hPa WSW 18.5 km/h 18.5 km/h 70 % 0.0 mm 0.0 W/m2 CLR
04:26 11.2 °C 5.9 °C 1023.2 hPa West 9.7 km/h 9.7 km/h 70 % 0.0 mm 0.0 W/m2 CLR
04:31 11.2 °C 5.9 °C 1022.9 hPa West 18.5 km/h 18.5 km/h 70 % 0.0 mm 0.0 W/m2 CLR
04:36 11.2 °C 5.9 °C 1022.9 hPa WSW 18.5 km/h 18.5 km/h 70 % 0.0 mm 0.0 W/m2 CLR
04:41 11.2 °C 5.9 °C 1023.2 hPa WSW 20.4 km/h 20.4 km/h 70 % 0.0 mm 0.0 W/m2 CLR
04:46 11.2 °C 5.9 °C 1023.2 hPa WSW 16.7 km/h 16.7 km/h 70 % 0.0 mm 0.0 W/m2 CLR
04:51 11.2 °C 5.9 °C 1022.9 hPa WNW 14.8 km/h 14.8 km/h 70 % 0.0 mm 0.0 W/m2 CLR
04:56 11.2 °C 5.9 °C 1022.9 hPa West 14.5 km/h 14.5 km/h 70 % 0.0 mm 0.0 W/m2 CLR
05:01 11.4 °C 6.1 °C 1022.9 hPa West 24.1 km/h 24.1 km/h 70 % 0.0 mm 0.0 W/m2 CLR
05:06 11.4 °C 5.9 °C 1022.9 hPa West 14.8 km/h 14.8 km/h 69 % 0.0 mm 0.0 W/m2 CLR
05:11 11.3 °C 5.8 °C 1022.9 hPa SW 5.6 km/h   69 % 0.0 mm 0.0 W/m2 CLR
05:16 11.3 °C 6.0 °C 1022.9 hPa West 20.4 km/h 20.4 km/h 70 % 0.0 mm 0.0 W/m2 CLR
05:21 11.3 °C 6.1 °C 1022.9 hPa WSW 18.5 km/h 18.5 km/h 70 % 0.0 mm 0.0 W/m2 CLR
05:26 11.3 °C 6.0 °C 1022.9 hPa SW 5.6 km/h 5.6 km/h 70 % 0.0 mm 0.0 W/m2 CLR
05:31 11.2 °C 5.9 °C 1022.9 hPa WSW 14.5 km/h 14.5 km/h 70 % 0.0 mm 0.0 W/m2 CLR
05:36 11.1 °C 6.1 °C 1022.9 hPa West 20.9 km/h 20.9 km/h 71 % 0.0 mm 0.0 W/m2 CLR
05:41 11.2 °C 6.1 °C 1022.9 hPa West 24.1 km/h 24.1 km/h 71 % 0.0 mm 0.0 W/m2 CLR
05:46 11.2 °C 6.1 °C 1022.9 hPa West 22.2 km/h 22.2 km/h 71 % 0.0 mm 0.0 W/m2 CLR
05:51 11.1 °C 6.1 °C 1022.9 hPa West 16.7 km/h 16.7 km/h 71 % 0.0 mm 0.0 W/m2 CLR
05:56 11.1 °C 6.0 °C 1022.9 hPa West 5.6 km/h 5.6 km/h 71 % 0.0 mm 0.0 W/m2 CLR
06:06 10.9 °C 6.1 °C 1022.9 hPa WSW 11.1 km/h 11.1 km/h 72 % 0.0 mm 0.0 W/m2 CLR
06:11 10.8 °C 5.9 °C 1022.9 hPa WSW 11.1 km/h 11.1 km/h 72 % 0.0 mm 0.0 W/m2 CLR
06:12 10.8 °C 5.9 °C 1022.9 hPa WSW 11.1 km/h 11.1 km/h 72 % 0.0 mm 0.0 W/m2 CLR
06:17 10.6 °C 5.8 °C 1022.9 hPa WSW 5.6 km/h 5.6 km/h 72 % 0.0 mm 0.0 W/m2 CLR
06:22 10.4 °C 5.8 °C 1022.9 hPa West 7.4 km/h 7.4 km/h 73 % 0.0 mm 0.0 W/m2 CLR
06:27 10.4 °C 5.8 °C 1022.9 hPa SW 3.7 km/h 3.7 km/h 73 % 0.0 mm 0.0 W/m2 CLR
06:32 10.3 °C 5.8 °C 1022.9 hPa SW 5.6 km/h 5.6 km/h 74 % 0.0 mm 0.0 W/m2 CLR
06:37 10.1 °C 5.7 °C 1022.9 hPa WSW 5.6 km/h 5.6 km/h 74 % 0.0 mm 0.0 W/m2 CLR
06:42 10.1 °C 5.6 °C 1022.9 hPa WSW 7.4 km/h 7.4 km/h 74 % 0.0 mm 0.0 W/m2 CLR
06:47 10.1 °C 5.8 °C 1022.9 hPa WSW 7.4 km/h 7.4 km/h 75 % 0.0 mm 0.0 W/m2 CLR
06:52 10.0 °C 5.8 °C 1023.2 hPa WSW 7.4 km/h 7.4 km/h 75 % 0.0 mm 0.0 W/m2 CLR
06:57 9.9 °C 5.7 °C 1023.2 hPa WSW 8.0 km/h 8.0 km/h 75 % 0.0 mm 0.0 W/m2 CLR
07:02 10.0 °C 5.8 °C 1023.2 hPa WSW 6.4 km/h 6.4 km/h 75 % 0.0 mm 0.0 W/m2 CLR
07:07 9.9 °C 5.5 °C 1023.6 hPa SSW 3.2 km/h 3.2 km/h 74 % 0.0 mm 0.0 W/m2 CLR
07:22 9.8 °C 5.6 °C 1023.6 hPa SW 6.4 km/h 6.4 km/h 75 % 0.0 mm 7.0 W/m2 OVC
07:27 9.8 °C 5.6 °C 1023.9 hPa Calm     75 % 0.0 mm 11.0 W/m2 BKN
07:32 9.8 °C 5.6 °C 1023.9 hPa West 7.4 km/h 7.4 km/h 75 % 0.0 mm 14.0 W/m2 BKN
07:37 9.9 °C 5.7 °C 1023.9 hPa WSW 5.6 km/h 5.6 km/h 75 % 0.0 mm 16.0 W/m2 BKN
07:42 9.9 °C 5.7 °C 1023.9 hPa WSW 5.6 km/h 5.6 km/h 75 % 0.0 mm 19.0 W/m2 BKN
07:47 9.9 °C 5.7 °C 1023.9 hPa WSW 4.8 km/h 4.8 km/h 75 % 0.0 mm 23.0 W/m2 BKN
07:52 9.9 °C 5.7 °C 1023.9 hPa WSW 7.4 km/h 7.4 km/h 75 % 0.0 mm 32.0 W/m2 BKN
07:57 10.0 °C 5.8 °C 1023.9 hPa WSW 7.4 km/h 7.4 km/h 75 % 0.0 mm 40.0 W/m2 BKN
08:02 10.1 °C 5.8 °C 1024.3 hPa WSW 7.4 km/h 7.4 km/h 75 % 0.0 mm 51.0 W/m2 SCT
08:07 10.2 °C 5.7 °C 1024.3 hPa WSW 8.0 km/h 8.0 km/h 74 % 0.0 mm 63.0 W/m2 SCT
08:12 10.3 °C 5.9 °C 1024.3 hPa SW 5.6 km/h 5.6 km/h 74 % 0.0 mm 62.0 W/m2 SCT
08:18 10.5 °C 6.1 °C 1024.3 hPa WSW 5.6 km/h   74 % 0.0 mm 91.0 W/m2 CLR
08:23 10.6 °C 6.2 °C 1024.3 hPa WSW 8.0 km/h 8.0 km/h 74 % 0.0 mm 109.0 W/m2 CLR
08:28 10.8 °C 6.1 °C 1024.3 hPa WSW 7.4 km/h 7.4 km/h 73 % 0.0 mm 127.0 W/m2 CLR
08:33 10.9 °C 6.1 °C 1024.3 hPa SW 7.4 km/h 7.4 km/h 72 % 0.0 mm 148.0 W/m2 CLR
08:38 11.2 °C 6.1 °C 1024.3 hPa WSW 9.3 km/h 9.3 km/h 71 % 0.0 mm 163.0 W/m2 CLR
08:43 11.3 °C 6.3 °C 1024.3 hPa SW 9.3 km/h 9.3 km/h 71 % 0.0 mm 183.0 W/m2 CLR
08:53 11.8 °C 6.3 °C 1024.3 hPa West 7.4 km/h 7.4 km/h 69 % 0.0 mm 220.0 W/m2 CLR
08:58 12.0 °C 6.3 °C 1024.3 hPa West 11.1 km/h 11.1 km/h 68 % 0.0 mm 236.0 W/m2 CLR
09:03 12.1 °C 6.2 °C 1024.3 hPa WNW 13.0 km/h 13.0 km/h 67 % 0.0 mm 51.0 W/m2 CLR
09:08 12.3 °C 6.4 °C 1024.3 hPa West 13.0 km/h 13.0 km/h 67 % 0.0 mm 260.0 W/m2 CLR
09:13 12.4 °C 6.2 °C 1024.3 hPa NW 20.4 km/h 20.4 km/h 66 % 0.0 mm 288.0 W/m2 CLR
09:18 12.5 °C 6.3 °C 1024.3 hPa NW 18.5 km/h 18.5 km/h 66 % 0.0 mm 308.0 W/m2 CLR
09:23 12.6 °C 6.4 °C 1024.3 hPa WNW 13.0 km/h 13.0 km/h 66 % 0.0 mm 323.0 W/m2 CLR
09:28 12.6 °C 6.2 °C 1024.3 hPa NNW 24.1 km/h 24.1 km/h 65 % 0.0 mm 339.0 W/m2 CLR
09:33 12.6 °C 6.2 °C 1024.3 hPa NW 16.7 km/h 16.7 km/h 65 % 0.0 mm 357.0 W/m2 CLR
09:38 12.7 °C 6.3 °C 1024.3 hPa NW 14.8 km/h 14.8 km/h 65 % 0.0 mm 373.0 W/m2 CLR
09:43 12.9 °C 6.3 °C 1024.3 hPa WNW 20.9 km/h 20.9 km/h 64 % 0.0 mm 388.0 W/m2 CLR
09:48 12.9 °C 6.3 °C 1024.3 hPa NW 12.9 km/h 12.9 km/h 64 % 0.0 mm 408.0 W/m2 CLR
09:53 13.1 °C 6.4 °C 1024.3 hPa WNW 11.1 km/h 11.1 km/h 64 % 0.0 mm 424.0 W/m2 CLR
09:58 13.1 °C 6.2 °C 1024.3 hPa NNW 11.1 km/h 11.1 km/h 63 % 0.0 mm 439.0 W/m2 CLR
10:03 13.2 °C 6.1 °C 1024.3 hPa WSW 14.8 km/h 14.8 km/h 62 % 0.0 mm 454.0 W/m2 CLR
10:08 13.4 °C 6.3 °C 1024.3 hPa WNW 24.1 km/h 24.1 km/h 62 % 0.0 mm 475.0 W/m2 CLR
10:13 13.4 °C 6.5 °C 1024.3 hPa NW 20.9 km/h 20.9 km/h 63 % 0.0 mm 487.0 W/m2 CLR
10:18 13.6 °C 6.4 °C 1024.3 hPa NW 16.1 km/h 16.1 km/h 62 % 0.0 mm 503.0 W/m2 CLR
10:23 13.8 °C 6.4 °C 1024.3 hPa NW 20.4 km/h 20.4 km/h 61 % 0.0 mm 517.0 W/m2 CLR
10:28 13.9 °C 6.5 °C 1023.9 hPa WNW 7.4 km/h 7.4 km/h 61 % 0.0 mm 531.0 W/m2 CLR
10:34 14.0 °C 6.6 °C 1024.3 hPa WNW 9.7 km/h 12.2 km/h 61 % 0.0 mm 548.0 W/m2 CLR
10:39 14.2 °C 6.3 °C 1024.3 hPa NW 22.2 km/h 22.2 km/h 59 % 0.0 mm 564.0 W/m2 CLR
10:44 14.2 °C 6.6 °C 1024.3 hPa NNW 20.4 km/h 20.4 km/h 60 % 0.0 mm 577.0 W/m2 CLR
10:49 14.4 °C 6.5 °C 1023.9 hPa WNW 22.2 km/h 22.2 km/h 59 % 0.0 mm 591.0 W/m2 CLR
10:54 14.6 °C 6.4 °C 1024.3 hPa WNW 18.5 km/h 18.5 km/h 58 % 0.0 mm 606.0 W/m2 CLR
10:59 14.8 °C 6.6 °C 1023.9 hPa NW 20.4 km/h 20.4 km/h 58 % 0.0 mm 621.0 W/m2 CLR
11:04 14.6 °C 6.2 °C 1023.9 hPa NW 20.9 km/h 20.9 km/h 57 % 0.0 mm 635.0 W/m2 CLR
11:09 14.8 °C 6.4 °C 1023.9 hPa West 18.5 km/h 18.5 km/h 57 % 0.0 mm 645.0 W/m2 CLR
11:14 14.9 °C 6.5 °C 1023.9 hPa WNW 18.5 km/h 18.5 km/h 57 % 0.0 mm 661.0 W/m2 CLR
11:19 15.2 °C 6.8 °C 1023.9 hPa NW 7.4 km/h 7.4 km/h 57 % 0.0 mm 673.0 W/m2 CLR
11:24 15.4 °C 6.4 °C 1023.6 hPa NW 5.6 km/h 5.6 km/h 55 % 0.0 mm 693.0 W/m2 CLR
11:29 15.7 °C 6.7 °C 1023.6 hPa NW 20.9 km/h 20.9 km/h 55 % 0.0 mm 657.0 W/m2 CLR
11:34 15.6 °C 6.3 °C 1023.6 hPa NNW 14.8 km/h 14.8 km/h 54 % 0.0 mm 686.0 W/m2 CLR
11:39 15.7 °C 6.4 °C 1023.6 hPa NW 20.4 km/h 20.4 km/h 54 % 0.0 mm 717.0 W/m2 CLR
11:44 15.8 °C 6.5 °C 1023.6 hPa WNW 19.3 km/h 19.3 km/h 54 % 0.0 mm 740.0 W/m2 CLR
11:49 15.8 °C 6.3 °C 1023.6 hPa NNW 8.0 km/h 8.0 km/h 53 % 0.0 mm 758.0 W/m2 CLR
11:54 16.2 °C 7.1 °C 1023.6 hPa WNW 7.4 km/h 7.4 km/h 55 % 0.0 mm 742.0 W/m2 CLR
11:59 16.4 °C 6.8 °C 1023.2 hPa NNW 16.1 km/h 16.1 km/h 53 % 0.0 mm 747.0 W/m2 CLR
12:04 16.5 °C 6.6 °C 1023.2 hPa NW 9.3 km/h 9.3 km/h 52 % 0.0 mm 765.0 W/m2 CLR
12:09 16.7 °C 6.8 °C 1023.2 hPa WNW 7.4 km/h 7.4 km/h 52 % 0.0 mm 784.0 W/m2 CLR
12:14 16.9 °C 6.7 °C 1023.2 hPa WNW 1.9 km/h 1.9 km/h 51 % 0.0 mm 796.0 W/m2 CLR
12:19 17.2 °C 6.7 °C 1023.2 hPa WNW 11.1 km/h 11.1 km/h 50 % 0.0 mm 802.0 W/m2 CLR
12:24 17.4 °C 6.6 °C 1023.2 hPa NW 9.3 km/h 9.3 km/h 49 % 0.0 mm 812.0 W/m2 CLR
12:29 17.5 °C 6.7 °C 1022.9 hPa NW 14.8 km/h 14.8 km/h 49 % 0.0 mm 810.0 W/m2 CLR
12:34 17.5 °C 6.1 °C 1022.9 hPa Calm     47 % 0.0 mm 816.0 W/m2 CLR
12:39 17.8 °C 6.9 °C 1022.9 hPa NW 20.4 km/h 20.4 km/h 49 % 0.0 mm 763.0 W/m2 CLR
12:44 17.7 °C 6.3 °C 1022.9 hPa NW 3.7 km/h 3.7 km/h 47 % 0.0 mm 735.0 W/m2 CLR
12:49 17.9 °C 6.4 °C 1022.9 hPa WNW 4.8 km/h 4.8 km/h 47 % 0.0 mm 810.0 W/m2 CLR
12:54 18.0 °C 6.2 °C 1022.6 hPa WNW 18.5 km/h 18.5 km/h 46 % 0.0 mm 837.0 W/m2 CLR
12:59 17.9 °C 6.4 °C 1022.6 hPa WNW 13.0 km/h 13.0 km/h 47 % 0.0 mm 870.0 W/m2 CLR
13:04 18.2 °C 6.7 °C 1022.6 hPa NW 16.1 km/h 16.1 km/h 47 % 0.0 mm 814.0 W/m2 CLR
13:09 18.5 °C 6.7 °C 1022.6 hPa NW 14.8 km/h 14.8 km/h 46 % 0.0 mm 875.0 W/m2 CLR
13:14 18.7 °C 7.2 °C 1022.2 hPa WNW 17.7 km/h 17.7 km/h 47 % 0.0 mm 821.0 W/m2 CLR
13:20 19.0 °C 6.4 °C 1022.2 hPa WNW 18.5 km/h 18.5 km/h 44 % 0.0 mm 833.0 W/m2 CLR
13:22 19.1 °C 6.5 °C 1022.2 hPa WNW 9.7 km/h 9.7 km/h 44 % 0.0 mm 740.0 W/m2 CLR
13:27 19.1 °C 6.6 °C 1022.2 hPa NNW 16.1 km/h 16.1 km/h 44 % 0.0 mm 891.0 W/m2 CLR
13:32 19.3 °C 6.1 °C 1021.9 hPa NW 5.6 km/h 5.6 km/h 42 % 0.0 mm 912.0 W/m2 CLR
13:37 19.4 °C 6.1 °C 1021.9 hPa NW 11.1 km/h 11.1 km/h 42 % 0.0 mm 874.0 W/m2 CLR
13:42 19.7 °C 6.8 °C 1021.9 hPa NW 18.5 km/h 18.5 km/h 43 % 0.0 mm 835.0 W/m2 CLR
13:47 19.7 °C 6.1 °C 1021.9 hPa NW 3.7 km/h 3.7 km/h 41 % 0.0 mm 900.0 W/m2 CLR
13:52 19.8 °C 6.5 °C 1021.6 hPa NNW 7.4 km/h 7.4 km/h 42 % 0.0 mm 904.0 W/m2 CLR
13:57 20.1 °C 6.4 °C 1021.6 hPa West 7.4 km/h 7.4 km/h 41 % 0.0 mm 893.0 W/m2 CLR
14:02 20.1 °C 5.7 °C 1021.6 hPa WNW 13.0 km/h 13.0 km/h 39 % 0.0 mm 809.0 W/m2 CLR
14:07 20.1 °C 6.1 °C 1021.6 hPa WNW 8.0 km/h 8.0 km/h 40 % 0.0 mm 877.0 W/m2 CLR
14:12 20.2 °C 6.6 °C 1021.2 hPa Calm     41 % 0.0 mm 900.0 W/m2 CLR
14:17 20.7 °C 7.0 °C 1021.2 hPa NW 6.4 km/h 6.4 km/h 41 % 0.0 mm 872.0 W/m2 CLR
14:22 20.8 °C 7.1 °C 1021.2 hPa Calm     41 % 0.0 mm 905.0 W/m2 CLR
14:27 21.1 °C 6.6 °C 1021.2 hPa North 3.7 km/h 3.7 km/h 39 % 0.0 mm 896.0 W/m2 CLR
14:32 21.3 °C 6.8 °C 1021.2 hPa West 11.3 km/h 11.3 km/h 39 % 0.0 mm 893.0 W/m2 CLR
14:37 21.4 °C 6.1 °C 1020.9 hPa West 7.4 km/h 7.4 km/h 37 % 0.0 mm 888.0 W/m2 CLR
14:42 21.4 °C 6.1 °C 1020.9 hPa WSW 5.6 km/h 5.6 km/h 37 % 0.0 mm 863.0 W/m2 CLR
14:47 21.5 °C 6.6 °C 1020.9 hPa NNE 5.6 km/h 5.6 km/h 38 % 0.0 mm 868.0 W/m2 CLR
14:52 21.6 °C 6.6 °C 1020.9 hPa NNE 3.7 km/h 3.7 km/h 38 % 0.0 mm 865.0 W/m2 CLR
14:58 21.7 °C 6.7 °C 1020.5 hPa NW 11.3 km/h 11.3 km/h 38 % 0.0 mm 867.0 W/m2 CLR
15:03 21.9 °C 6.1 °C 1020.9 hPa Calm   0.3 km/h 36 % 0.0 mm 858.0 W/m2 CLR
15:08 22.3 °C 6.9 °C 1020.5 hPa North 5.6 km/h 5.6 km/h 37 % 0.0 mm 872.0 W/m2 CLR
15:13 22.6 °C 6.8 °C 1020.5 hPa West 5.6 km/h 5.6 km/h 36 % 0.0 mm 853.0 W/m2 CLR
15:18 22.7 °C 6.9 °C 1020.5 hPa NW 14.8 km/h 14.8 km/h 36 % 0.0 mm 853.0 W/m2 CLR
15:23 22.7 °C 6.0 °C 1020.5 hPa Calm     34 % 0.0 mm 844.0 W/m2 CLR
15:28 22.9 °C 5.3 °C 1020.2 hPa West 13.0 km/h 13.0 km/h 32 % 0.0 mm 842.0 W/m2 CLR
15:33 22.7 °C 5.2 °C 1020.2 hPa Calm     32 % 0.0 mm 838.0 W/m2 CLR
15:38 23.0 °C 6.7 °C 1020.2 hPa NNW 1.6 km/h 1.6 km/h 35 % 0.0 mm 816.0 W/m2 CLR
15:43 23.1 °C 5.9 °C 1020.2 hPa ENE 13.0 km/h 13.0 km/h 33 % 0.0 mm 819.0 W/m2 CLR
15:48 23.2 °C 6.4 °C 1019.9 hPa ENE 5.6 km/h 5.6 km/h 34 % 0.0 mm 807.0 W/m2 CLR
15:53 23.4 °C 6.2 °C 1019.9 hPa ENE 13.0 km/h 13.0 km/h 33 % 0.0 mm 795.0 W/m2 CLR
15:58 23.3 °C 6.2 °C 1019.9 hPa NNE 12.9 km/h 12.9 km/h 33 % 0.0 mm 737.0 W/m2 CLR
16:03 23.1 °C 5.9 °C 1019.9 hPa NNW 13.0 km/h 13.0 km/h 33 % 0.0 mm 759.0 W/m2 CLR
16:07 23.2 °C 5.6 °C 1019.5 hPa NE 14.8 km/h 14.8 km/h 32 % 0.0 mm 777.0 W/m2 CLR
16:12 23.4 °C 5.8 °C 1019.5 hPa North 7.4 km/h 7.4 km/h 32 % 0.0 mm 758.0 W/m2 CLR
16:17 23.4 °C 5.8 °C 1019.5 hPa NE 22.2 km/h 22.2 km/h 32 % 0.0 mm 722.0 W/m2 CLR
16:22 23.2 °C 5.2 °C 1019.5 hPa North 11.1 km/h 11.1 km/h 31 % 0.0 mm 693.0 W/m2 CLR
16:27 23.1 °C 4.6 °C 1019.5 hPa NNW 20.4 km/h 20.4 km/h 30 % 0.0 mm 703.0 W/m2 CLR
16:32 23.1 °C 5.0 °C 1019.5 hPa ENE 6.4 km/h 6.4 km/h 31 % 0.0 mm 722.0 W/m2 CLR
16:37 23.3 °C 4.7 °C 1019.5 hPa NNW 7.4 km/h 7.4 km/h 30 % 0.0 mm 731.0 W/m2 CLR
16:42 23.4 °C 4.8 °C 1019.5 hPa NNE 5.6 km/h 5.6 km/h 30 % 0.0 mm 722.0 W/m2 CLR
16:47 23.4 °C 4.8 °C 1019.2 hPa NE 5.6 km/h 5.6 km/h 30 % 0.0 mm 710.0 W/m2 CLR
16:52 23.4 °C 4.3 °C 1019.2 hPa NNE 18.5 km/h 18.5 km/h 29 % 0.0 mm 668.0 W/m2 CLR
17:02 23.3 °C 4.8 °C 1019.2 hPa NNW 5.6 km/h 5.6 km/h 30 % 0.0 mm 693.0 W/m2 CLR
17:07 23.5 °C 4.4 °C 1018.8 hPa NNW 11.1 km/h 11.1 km/h 29 % 0.0 mm 512.0 W/m2 CLR
17:12 23.4 °C 4.3 °C 1018.8 hPa NNE 18.5 km/h 18.5 km/h 29 % 0.0 mm 457.0 W/m2 CLR
17:17 23.0 °C 4.5 °C 1018.8 hPa NNW 18.5 km/h 18.5 km/h 30 % 0.0 mm 292.0 W/m2 CLR
17:22 22.9 °C 4.8 °C 1018.8 hPa Calm     31 % 0.0 mm 457.0 W/m2 CLR
17:27 23.0 °C 4.5 °C 1018.8 hPa NNW 5.6 km/h 5.6 km/h 30 % 0.0 mm 471.0 W/m2 CLR
17:32 23.1 °C 4.6 °C 1018.8 hPa NW 1.9 km/h 1.9 km/h 30 % 0.0 mm 513.0 W/m2 CLR
17:37 23.3 °C 4.3 °C 1018.8 hPa NNE 9.7 km/h 9.7 km/h 29 % 0.0 mm 548.0 W/m2 CLR
17:42 23.4 °C 4.8 °C 1018.8 hPa NNW 11.1 km/h 11.1 km/h 30 % 0.0 mm 501.0 W/m2 CLR
17:47 23.4 °C 4.3 °C 1018.8 hPa Calm     29 % 0.0 mm 478.0 W/m2 CLR
17:52 23.4 °C 4.8 °C 1018.5 hPa NNW 13.0 km/h 13.0 km/h 30 % 0.0 mm 438.0 W/m2 CLR
17:57 23.3 °C 4.8 °C 1018.8 hPa NNW 9.3 km/h 9.3 km/h 30 % 0.0 mm 466.0 W/m2 CLR
18:02 23.3 °C 4.8 °C 1018.8 hPa Calm     30 % 0.0 mm 471.0 W/m2 CLR
18:07 23.6 °C 4.9 °C 1018.5 hPa NNW 1.9 km/h   30 % 0.0 mm 473.0 W/m2 CLR
18:12 23.7 °C 5.1 °C 1018.5 hPa Calm     30 % 0.0 mm 436.0 W/m2 CLR
18:17 23.6 °C 5.0 °C 1018.5 hPa North 11.1 km/h 11.1 km/h 30 % 0.0 mm 355.0 W/m2 CLR
18:22 23.4 °C 4.8 °C 1018.5 hPa Calm     30 % 0.0 mm 330.0 W/m2 CLR
18:27 23.5 °C 5.8 °C 1018.5 hPa Calm     32 % 0.0 mm 250.0 W/m2 CLR
18:32 23.7 °C 5.1 °C 1018.5 hPa Calm     30 % 0.0 mm 237.0 W/m2 CLR
18:37 23.7 °C 5.6 °C 1018.5 hPa NNE 11.1 km/h 11.1 km/h 31 % 0.0 mm 302.0 W/m2 CLR
18:42 23.4 °C 5.8 °C 1018.5 hPa North 11.1 km/h 11.1 km/h 32 % 0.0 mm 369.0 W/m2 CLR
18:47 23.4 °C 5.8 °C 1018.5 hPa North 7.4 km/h 7.4 km/h 32 % 0.0 mm 237.0 W/m2 CLR
18:52 23.3 °C 6.2 °C 1018.5 hPa NNW 3.7 km/h 3.7 km/h 33 % 0.0 mm 295.0 W/m2 CLR
18:57 23.4 °C 5.7 °C 1018.5 hPa North 4.8 km/h 4.8 km/h 32 % 0.0 mm 316.0 W/m2 CLR
19:02 23.4 °C 6.2 °C 1018.5 hPa NW 5.6 km/h   33 % 0.0 mm 301.0 W/m2 CLR
19:07 23.4 °C 5.7 °C 1018.5 hPa NNW 7.4 km/h 7.4 km/h 32 % 0.0 mm 287.0 W/m2 CLR
19:09 23.4 °C 5.7 °C 1018.5 hPa NNW 5.6 km/h 5.6 km/h 32 % 0.0 mm 283.0 W/m2 CLR
19:14 23.2 °C 5.6 °C 1018.5 hPa North 5.6 km/h 5.8 km/h 32 % 0.0 mm 267.0 W/m2 CLR
19:19 23.1 °C 5.9 °C 1018.5 hPa Calm     33 % 0.0 mm 229.0 W/m2 CLR
19:24 23.1 °C 5.5 °C 1018.5 hPa Calm     32 % 0.0 mm 204.0 W/m2 CLR
19:29 23.4 °C 5.3 °C 1018.5 hPa Calm     31 % 0.0 mm 186.0 W/m2 CLR
19:34 23.4 °C 5.3 °C 1018.5 hPa Calm     31 % 0.0 mm 163.0 W/m2 CLR
19:39 23.2 °C 5.2 °C 1018.5 hPa Calm     31 % 0.0 mm 137.0 W/m2 CLR
19:44 23.2 °C 5.6 °C 1018.5 hPa Calm     32 % 0.0 mm 118.0 W/m2 CLR
19:49 23.2 °C 5.1 °C 1018.2 hPa Calm     31 % 0.0 mm 98.0 W/m2 CLR
19:54 23.1 °C 5.9 °C 1018.2 hPa Calm     33 % 0.0 mm 79.0 W/m2 FEW
20:04 22.7 °C 5.2 °C 1018.2 hPa NW 3.2 km/h 3.2 km/h 32 % 0.0 mm 32.0 W/m2 BKN
20:09 22.3 °C 5.2 °C 1018.2 hPa NW 7.4 km/h 7.4 km/h 33 % 0.0 mm 33.0 W/m2 BKN
20:14 21.9 °C 5.3 °C 1018.2 hPa NW 5.6 km/h 5.6 km/h 34 % 0.0 mm 25.0 W/m2 BKN
20:19 21.6 °C 5.5 °C 1018.2 hPa Calm     35 % 0.0 mm 21.0 W/m2 BKN
20:29 21.1 °C 5.1 °C 1018.2 hPa Calm     35 % 0.0 mm 11.0 W/m2 BKN
20:34 20.8 °C 5.2 °C 1018.2 hPa Calm     36 % 0.0 mm 7.0 W/m2 BKN
20:39 20.3 °C 5.2 °C 1018.2 hPa Calm     37 % 0.0 mm 5.0 W/m2 OVC
20:44 19.8 °C 5.1 °C 1018.2 hPa Calm     38 % 0.0 mm 0.0 W/m2 OVC
20:49 19.3 °C 4.9 °C 1018.2 hPa Calm     39 % 0.0 mm 0.0 W/m2 OVC
20:54 18.9 °C 5.1 °C 1018.2 hPa West 3.7 km/h 3.7 km/h 40 % 0.0 mm 0.0 W/m2 CLR
21:04 18.4 °C 4.9 °C 1018.5 hPa Calm     41 % 0.0 mm 0.0 W/m2 CLR
21:09 18.3 °C 4.8 °C 1018.5 hPa Calm     41 % 0.0 mm 0.0 W/m2 CLR
21:14 18.1 °C 4.9 °C 1018.5 hPa NW 7.4 km/h 7.4 km/h 42 % 0.0 mm 0.0 W/m2 CLR
21:19 17.9 °C 4.8 °C 1018.5 hPa Calm     42 % 0.0 mm 0.0 W/m2 CLR
21:24 17.9 °C 4.8 °C 1018.5 hPa Calm     42 % 0.0 mm 0.0 W/m2 CLR
21:29 17.6 °C 5.2 °C 1018.5 hPa Calm     44 % 0.0 mm 0.0 W/m2 CLR
21:34 17.3 °C 5.6 °C 1018.8 hPa Calm     46 % 0.0 mm 0.0 W/m2 CLR
21:39 16.9 °C 5.6 °C 1018.8 hPa Calm     47 % 0.0 mm 0.0 W/m2 CLR
21:44 16.6 °C 5.2 °C 1018.8 hPa Calm     47 % 0.0 mm 0.0 W/m2 CLR
21:49 16.3 °C 5.3 °C 1018.8 hPa Calm     48 % 0.0 mm 0.0 W/m2 CLR
21:54 16.1 °C 5.3 °C 1018.8 hPa Calm     49 % 0.0 mm 0.0 W/m2 CLR
21:59 15.7 °C 5.3 °C 1018.8 hPa Calm     50 % 0.0 mm 0.0 W/m2 CLR
22:04 15.5 °C 5.1 °C 1018.8 hPa Calm     50 % 0.0 mm 0.0 W/m2 CLR
22:09 15.4 °C 5.0 °C 1019.2 hPa Calm     50 % 0.0 mm 0.0 W/m2 CLR
22:14 15.3 °C 4.9 °C 1019.2 hPa Calm     50 % 0.0 mm 0.0 W/m2 CLR
22:19 15.2 °C 5.4 °C 1019.2 hPa Calm     52 % 0.0 mm 0.0 W/m2 CLR
22:24 14.9 °C 5.1 °C 1019.2 hPa Calm     52 % 0.0 mm 0.0 W/m2 CLR
22:29 14.7 °C 5.2 °C 1019.2 hPa SW 3.7 km/h 3.7 km/h 53 % 0.0 mm 0.0 W/m2 CLR
22:34 14.4 °C 5.2 °C 1019.2 hPa Calm     54 % 0.0 mm 0.0 W/m2 CLR
22:39 14.1 °C 5.2 °C 1019.5 hPa Calm     55 % 0.0 mm 0.0 W/m2 CLR
22:44 13.9 °C 5.0 °C 1019.5 hPa Calm     55 % 0.0 mm 0.0 W/m2 CLR
22:49 13.8 °C 5.2 °C 1019.5 hPa Calm     56 % 0.0 mm 0.0 W/m2 CLR
22:54 13.6 °C 5.0 °C 1019.5 hPa Calm     56 % 0.0 mm 0.0 W/m2 CLR
22:59 13.3 °C 5.2 °C 1019.5 hPa Calm     58 % 0.0 mm 0.0 W/m2 CLR
23:04 13.1 °C 5.0 °C 1019.5 hPa SSW 5.6 km/h 5.6 km/h 58 % 0.0 mm 0.0 W/m2 CLR
23:09 12.8 °C 4.9 °C 1019.5 hPa SW 3.7 km/h 3.7 km/h 59 % 0.0 mm 0.0 W/m2 CLR
23:14 12.6 °C 4.8 °C 1019.5 hPa SW 1.9 km/h   59 % 0.0 mm 0.0 W/m2 CLR
23:19 12.4 °C 4.8 °C 1019.5 hPa Calm     60 % 0.0 mm 0.0 W/m2 CLR
23:24 12.3 °C 4.8 °C 1019.5 hPa Calm     60 % 0.0 mm 0.0 W/m2 CLR
23:29 12.3 °C 4.7 °C 1019.5 hPa Calm     60 % 0.0 mm 0.0 W/m2 CLR
23:34 12.2 °C 4.7 °C 1019.5 hPa Calm     60 % 0.0 mm 0.0 W/m2 CLR
23:39 12.1 °C 4.8 °C 1019.5 hPa Calm     61 % 0.0 mm 0.0 W/m2 CLR
23:49 11.9 °C 4.6 °C 1019.5 hPa Calm     61 % 0.0 mm 0.0 W/m2 CLR
23:54 11.8 °C 4.7 °C 1019.9 hPa Calm     62 % 0.0 mm 0.0 W/m2 CLR
23:59 11.7 °C 4.6 °C 1019.9 hPa SW 3.2 km/h 3.2 km/h 62 % 0.0 mm 0.0 W/m2 CLR
Lo Temps de Massalio
Compliments of Weather Underground - 1.25 mb